createdAt,value
2022-12-18T00:04:40.968Z,11.97
2022-12-18T00:14:42.200Z,11.19
2022-12-18T00:24:45.637Z,10.87
2022-12-18T00:34:46.580Z,11.15
2022-12-18T00:44:46.453Z,11.12
2022-12-18T00:54:56.293Z,11.36
2022-12-18T01:05:04.547Z,11.14
2022-12-18T01:15:13.212Z,11.73
2022-12-18T01:25:21.785Z,12.63
2022-12-18T01:35:30.486Z,12.5
2022-12-18T01:45:39.588Z,11.77
2022-12-18T01:55:49.391Z,12.78
2022-12-18T02:05:59.221Z,12.04
2022-12-18T02:16:08.840Z,11.78
2022-12-18T02:26:19.274Z,11.93
2022-12-18T02:36:18.113Z,12.65
2022-12-18T02:46:26.142Z,12.59
2022-12-18T02:56:34.563Z,11.71
2022-12-18T03:06:43.173Z,11.45
2022-12-18T03:16:51.497Z,11.26
2022-12-18T03:26:59.795Z,11.5
2022-12-18T03:37:08.540Z,10.95
2022-12-18T03:47:16.752Z,9.98
2022-12-18T03:57:25.902Z,10.34
2022-12-18T04:07:34.911Z,10.38
2022-12-18T04:17:43.078Z,10.81
2022-12-18T04:27:51.267Z,9.94
2022-12-18T04:37:59.715Z,9.7
2022-12-18T04:48:09.125Z,10.35
2022-12-18T04:58:17.460Z,9.46
2022-12-18T05:08:25.774Z,9.37
2022-12-18T05:18:33.976Z,9.85
2022-12-18T05:28:42.385Z,9.03
2022-12-18T05:38:50.869Z,9.85
2022-12-18T05:48:59.839Z,8.95
2022-12-18T05:59:08.267Z,9.1
2022-12-18T06:09:16.694Z,9.62
2022-12-18T06:19:25.179Z,9.17
2022-12-18T06:29:33.718Z,9.1
2022-12-18T06:39:43.453Z,9.83
2022-12-18T06:49:52.045Z,9.42
2022-12-18T07:00:00.563Z,9.7
2022-12-18T07:10:08.821Z,10.3
2022-12-18T07:20:17.214Z,9.52
2022-12-18T07:30:25.607Z,9.26
2022-12-18T07:40:33.438Z,9.25
2022-12-18T07:50:41.357Z,8.8
2022-12-18T08:00:49.428Z,8.77
2022-12-18T08:10:57.276Z,8.18
2022-12-18T08:21:08.637Z,8.38
2022-12-18T08:31:24.620Z,8.54
2022-12-18T08:41:12.796Z,8.53
2022-12-18T08:51:20.889Z,7.78
2022-12-18T09:01:29.444Z,7.34
2022-12-18T09:11:54.551Z,8.49
2022-12-18T09:21:46.251Z,7.69
2022-12-18T09:31:49.780Z,8.03
2022-12-18T09:41:57.995Z,8.28
2022-12-18T09:52:06.254Z,7.4
2022-12-18T10:02:14.370Z,6.87
2022-12-18T10:12:22.487Z,7.48
2022-12-18T10:22:29.859Z,7.66
2022-12-18T10:32:38.100Z,7.59
2022-12-18T10:42:45.355Z,9.08
2022-12-18T10:52:54.159Z,7.62
2022-12-18T11:03:02.552Z,7.76
2022-12-18T11:13:14.785Z,8.39
2022-12-18T11:23:12.634Z,9.01
2022-12-18T11:33:20.971Z,8.32
2022-12-18T11:43:29.069Z,7.29
2022-12-18T11:53:37.217Z,6.45
2022-12-18T12:03:45.518Z,7.9
2022-12-18T12:13:52.841Z,6.28
2022-12-18T12:24:02.013Z,6.34
2022-12-18T12:34:10.730Z,6.82
2022-12-18T12:44:18.334Z,6.4
2022-12-18T12:54:25.854Z,6.64
2022-12-18T13:04:34.059Z,8.67
2022-12-18T13:14:42.156Z,8.46
2022-12-18T13:24:49.225Z,7.92
2022-12-18T13:34:56.853Z,8.55
2022-12-18T13:45:04.747Z,8.55
2022-12-18T13:55:12.688Z,9.65
2022-12-18T14:05:20.769Z,9.6
2022-12-18T14:15:27.716Z,10.29
2022-12-18T14:25:35.263Z,11.11
2022-12-18T14:35:42.858Z,10.97
2022-12-18T14:45:49.904Z,15.14
2022-12-18T14:55:57.870Z,10.28
2022-12-18T15:06:04.751Z,10.26
2022-12-18T15:16:12.694Z,11.42
2022-12-18T15:26:20.215Z,10.47
2022-12-18T15:36:27.012Z,10.32
2022-12-18T15:46:34.520Z,8.62
2022-12-18T15:56:42.111Z,9.96
2022-12-18T16:07:13.673Z,10.32
2022-12-18T16:16:56.351Z,10.96
2022-12-18T16:27:04.274Z,11.86
2022-12-18T16:37:11.695Z,13.23
2022-12-18T16:47:18.514Z,12.8
2022-12-18T16:57:27.402Z,10.88
2022-12-18T17:07:37.724Z,12.59
2022-12-18T17:17:36.603Z,12.64
2022-12-18T17:27:46.566Z,13.28
2022-12-18T17:37:55.068Z,13.98
2022-12-18T17:48:02.372Z,16.18
2022-12-18T17:58:10.940Z,15.27
2022-12-18T18:08:20.317Z,18.98
2022-12-18T18:18:28.745Z,15.55
2022-12-18T18:28:38.076Z,10.59
2022-12-18T18:38:48.344Z,13.96
2022-12-18T18:48:53.550Z,12.76
2022-12-18T18:59:02.842Z,12.26
2022-12-18T19:09:11.108Z,14.87
2022-12-18T19:19:22.757Z,12.12
2022-12-18T19:29:27.870Z,14.06
2022-12-18T19:39:46.341Z,15.79
2022-12-18T19:49:43.615Z,14.53
2022-12-18T19:59:44.009Z,18.41
2022-12-18T20:09:59.676Z,12.66
2022-12-18T20:20:08.046Z,13.7
2022-12-18T20:30:02.357Z,14.82
2022-12-18T20:40:03.295Z,15.34
2022-12-18T20:50:06.778Z,14.02
2022-12-18T21:00:12.848Z,14.12
2022-12-18T21:10:11.476Z,14.48
2022-12-18T21:20:24.482Z,15.06
2022-12-18T21:30:22.638Z,15.28
2022-12-18T21:40:42.731Z,15.82
2022-12-18T21:50:30.715Z,17.57
2022-12-18T22:00:43.429Z,16.97
2022-12-18T22:10:39.138Z,17.04
2022-12-18T22:20:47.333Z,17.46
2022-12-18T22:30:56.388Z,17.19
2022-12-18T22:41:02.527Z,17.66
2022-12-18T22:51:11.536Z,15.64
2022-12-18T23:01:19.552Z,13.87
2022-12-18T23:11:27.146Z,13.7
2022-12-18T23:21:34.369Z,14.75
2022-12-18T23:31:41.979Z,14.68
2022-12-18T23:41:50.028Z,13.81
2022-12-18T23:51:58.320Z,15.91
